sensor_id;sensor_type;location;lat;lon;timestamp;temperature;humidity
11087;DHT22;5597;47.588;9.642;2023-04-25T00:02:16;8.90;99.90
11087;DHT22;5597;47.588;9.642;2023-04-25T00:04:43;8.90;99.90
11087;DHT22;5597;47.588;9.642;2023-04-25T00:07:09;8.90;99.90
11087;DHT22;5597;47.588;9.642;2023-04-25T00:09:34;8.80;99.90
11087;DHT22;5597;47.588;9.642;2023-04-25T00:12:00;8.80;99.90
11087;DHT22;5597;47.588;9.642;2023-04-25T00:14:26;8.90;99.90
11087;DHT22;5597;47.588;9.642;2023-04-25T00:16:53;8.80;99.90
11087;DHT22;5597;47.588;9.642;2023-04-25T00:19:19;8.80;99.90
11087;DHT22;5597;47.588;9.642;2023-04-25T00:21:45;8.80;99.90
11087;DHT22;5597;47.588;9.642;2023-04-25T00:24:12;8.80;99.90
11087;DHT22;5597;47.588;9.642;2023-04-25T00:26:37;8.80;99.90
11087;DHT22;5597;47.588;9.642;2023-04-25T00:29:03;8.80;99.90
11087;DHT22;5597;47.588;9.642;2023-04-25T00:31:29;8.80;99.90
11087;DHT22;5597;47.588;9.642;2023-04-25T00:33:55;8.80;99.90
11087;DHT22;5597;47.588;9.642;2023-04-25T00:36:20;8.80;99.90
11087;DHT22;5597;47.588;9.642;2023-04-25T00:38:46;8.80;99.90
11087;DHT22;5597;47.588;9.642;2023-04-25T00:41:12;8.80;99.90
11087;DHT22;5597;47.588;9.642;2023-04-25T00:43:38;8.80;99.90
11087;DHT22;5597;47.588;9.642;2023-04-25T00:46:05;8.80;99.90
11087;DHT22;5597;47.588;9.642;2023-04-25T00:48:30;8.70;99.90
11087;DHT22;5597;47.588;9.642;2023-04-25T00:50:58;8.70;99.90
11087;DHT22;5597;47.588;9.642;2023-04-25T00:53:26;8.70;99.90
11087;DHT22;5597;47.588;9.642;2023-04-25T00:55:52;8.70;99.90
11087;DHT22;5597;47.588;9.642;2023-04-25T00:58:19;8.60;99.90
11087;DHT22;5597;47.588;9.642;2023-04-25T01:00:46;8.60;99.90
11087;DHT22;5597;47.588;9.642;2023-04-25T01:03:13;8.60;99.90
11087;DHT22;5597;47.588;9.642;2023-04-25T01:05:42;8.50;99.90
11087;DHT22;5597;47.588;9.642;2023-04-25T01:08:08;8.50;99.90
11087;DHT22;5597;47.588;9.642;2023-04-25T01:10:34;8.50;99.90
11087;DHT22;5597;47.588;9.642;2023-04-25T01:13:00;8.50;99.90
11087;DHT22;5597;47.588;9.642;2023-04-25T01:15:25;8.50;99.90
11087;DHT22;5597;47.588;9.642;2023-04-25T01:17:51;8.50;99.90
11087;DHT22;5597;47.588;9.642;2023-04-25T01:20:20;8.50;99.90
11087;DHT22;5597;47.588;9.642;2023-04-25T01:22:46;8.50;99.90
11087;DHT22;5597;47.588;9.642;2023-04-25T01:25:11;8.40;99.90
11087;DHT22;5597;47.588;9.642;2023-04-25T01:27:37;8.40;99.90
11087;DHT22;5597;47.588;9.642;2023-04-25T01:30:04;8.40;99.90
11087;DHT22;5597;47.588;9.642;2023-04-25T01:32:31;8.40;99.90
11087;DHT22;5597;47.588;9.642;2023-04-25T01:35:04;8.40;99.90
11087;DHT22;5597;47.588;9.642;2023-04-25T01:37:37;8.40;99.90
11087;DHT22;5597;47.588;9.642;2023-04-25T01:40:03;8.40;99.90
11087;DHT22;5597;47.588;9.642;2023-04-25T01:42:31;8.40;99.90
11087;DHT22;5597;47.588;9.642;2023-04-25T01:44:57;8.40;99.90
11087;DHT22;5597;47.588;9.642;2023-04-25T01:47:23;8.40;99.90
11087;DHT22;5597;47.588;9.642;2023-04-25T01:49:48;8.30;99.90
11087;DHT22;5597;47.588;9.642;2023-04-25T01:52:14;8.30;99.90
11087;DHT22;5597;47.588;9.642;2023-04-25T01:54:40;8.30;99.90
11087;DHT22;5597;47.588;9.642;2023-04-25T01:57:09;8.30;99.90
11087;DHT22;5597;47.588;9.642;2023-04-25T01:59:35;8.30;99.90
11087;DHT22;5597;47.588;9.642;2023-04-25T02:02:01;8.30;99.90
11087;DHT22;5597;47.588;9.642;2023-04-25T02:04:32;8.20;99.90
11087;DHT22;5597;47.588;9.642;2023-04-25T02:06:58;8.20;99.90
11087;DHT22;5597;47.588;9.642;2023-04-25T02:09:23;8.20;99.90
11087;DHT22;5597;47.588;9.642;2023-04-25T02:11:49;8.20;99.90
11087;DHT22;5597;47.588;9.642;2023-04-25T02:14:15;8.20;99.90
11087;DHT22;5597;47.588;9.642;2023-04-25T02:16:40;8.30;99.90
11087;DHT22;5597;47.588;9.642;2023-04-25T02:19:06;8.20;99.90
11087;DHT22;5597;47.588;9.642;2023-04-25T02:21:32;8.20;99.90
11087;DHT22;5597;47.588;9.642;2023-04-25T02:24:01;8.20;99.90
11087;DHT22;5597;47.588;9.642;2023-04-25T02:26:26;8.10;99.90
11087;DHT22;5597;47.588;9.642;2023-04-25T02:28:52;8.10;99.90
11087;DHT22;5597;47.588;9.642;2023-04-25T02:31:18;8.10;99.90
11087;DHT22;5597;47.588;9.642;2023-04-25T02:33:44;8.10;99.90
11087;DHT22;5597;47.588;9.642;2023-04-25T02:36:10;8.10;99.90
11087;DHT22;5597;47.588;9.642;2023-04-25T02:38:35;8.10;99.90
11087;DHT22;5597;47.588;9.642;2023-04-25T02:41:01;8.10;99.90
11087;DHT22;5597;47.588;9.642;2023-04-25T02:43:26;8.10;99.90
11087;DHT22;5597;47.588;9.642;2023-04-25T02:45:52;8.10;99.90
11087;DHT22;5597;47.588;9.642;2023-04-25T02:48:18;8.10;99.90
11087;DHT22;5597;47.588;9.642;2023-04-25T02:50:43;8.00;99.90
11087;DHT22;5597;47.588;9.642;2023-04-25T02:53:09;8.00;99.90
11087;DHT22;5597;47.588;9.642;2023-04-25T02:55:34;7.90;99.90
11087;DHT22;5597;47.588;9.642;2023-04-25T02:58:00;7.90;99.90
11087;DHT22;5597;47.588;9.642;2023-04-25T03:00:25;7.90;99.90
11087;DHT22;5597;47.588;9.642;2023-04-25T03:02:51;7.80;99.90
11087;DHT22;5597;47.588;9.642;2023-04-25T03:05:17;7.80;99.90
11087;DHT22;5597;47.588;9.642;2023-04-25T03:07:43;7.80;99.90
11087;DHT22;5597;47.588;9.642;2023-04-25T03:10:10;7.80;99.90
11087;DHT22;5597;47.588;9.642;2023-04-25T03:12:36;7.80;99.90
11087;DHT22;5597;47.588;9.642;2023-04-25T03:15:02;7.80;99.90
11087;DHT22;5597;47.588;9.642;2023-04-25T03:17:28;7.80;99.90
11087;DHT22;5597;47.588;9.642;2023-04-25T03:19:54;7.80;99.90
11087;DHT22;5597;47.588;9.642;2023-04-25T03:22:19;7.80;99.90
11087;DHT22;5597;47.588;9.642;2023-04-25T03:24:45;7.70;99.90
11087;DHT22;5597;47.588;9.642;2023-04-25T03:27:11;7.70;99.90
11087;DHT22;5597;47.588;9.642;2023-04-25T03:29:36;7.70;99.90
11087;DHT22;5597;47.588;9.642;2023-04-25T03:32:02;7.70;99.90
11087;DHT22;5597;47.588;9.642;2023-04-25T03:34:27;7.70;99.90
11087;DHT22;5597;47.588;9.642;2023-04-25T03:36:53;7.70;99.90
11087;DHT22;5597;47.588;9.642;2023-04-25T03:39:19;7.70;99.90
11087;DHT22;5597;47.588;9.642;2023-04-25T03:41:44;7.70;99.90
11087;DHT22;5597;47.588;9.642;2023-04-25T03:44:10;7.70;99.90
11087;DHT22;5597;47.588;9.642;2023-04-25T03:46:35;7.60;99.90
11087;DHT22;5597;47.588;9.642;2023-04-25T03:49:01;7.60;99.90
11087;DHT22;5597;47.588;9.642;2023-04-25T03:51:26;7.60;99.90
11087;DHT22;5597;47.588;9.642;2023-04-25T03:53:52;7.50;99.90
11087;DHT22;5597;47.588;9.642;2023-04-25T03:56:18;7.50;99.90
11087;DHT22;5597;47.588;9.642;2023-04-25T03:58:44;7.50;99.90
11087;DHT22;5597;47.588;9.642;2023-04-25T04:01:10;7.40;99.90
11087;DHT22;5597;47.588;9.642;2023-04-25T04:03:36;7.40;99.90
11087;DHT22;5597;47.588;9.642;2023-04-25T04:06:05;7.40;99.90
11087;DHT22;5597;47.588;9.642;2023-04-25T04:08:32;7.40;99.90
11087;DHT22;5597;47.588;9.642;2023-04-25T04:10:58;7.30;99.90
11087;DHT22;5597;47.588;9.642;2023-04-25T04:13:25;7.20;99.90
11087;DHT22;5597;47.588;9.642;2023-04-25T04:15:51;7.20;99.90
11087;DHT22;5597;47.588;9.642;2023-04-25T04:18:17;7.10;99.90
11087;DHT22;5597;47.588;9.642;2023-04-25T04:20:42;7.10;99.90
11087;DHT22;5597;47.588;9.642;2023-04-25T04:23:08;7.00;99.90
11087;DHT22;5597;47.588;9.642;2023-04-25T04:25:33;7.00;99.90
11087;DHT22;5597;47.588;9.642;2023-04-25T04:27:59;7.00;99.90
11087;DHT22;5597;47.588;9.642;2023-04-25T04:30:26;6.90;99.90
11087;DHT22;5597;47.588;9.642;2023-04-25T04:32:57;6.90;99.90
11087;DHT22;5597;47.588;9.642;2023-04-25T04:35:23;6.80;99.90
11087;DHT22;5597;47.588;9.642;2023-04-25T04:37:49;6.80;99.90
11087;DHT22;5597;47.588;9.642;2023-04-25T04:40:16;6.70;99.90
11087;DHT22;5597;47.588;9.642;2023-04-25T04:42:42;6.70;99.90
11087;DHT22;5597;47.588;9.642;2023-04-25T04:45:09;6.70;99.90
11087;DHT22;5597;47.588;9.642;2023-04-25T04:47:35;6.60;99.90
11087;DHT22;5597;47.588;9.642;2023-04-25T04:50:06;6.50;99.90
11087;DHT22;5597;47.588;9.642;2023-04-25T04:52:34;6.50;99.90
11087;DHT22;5597;47.588;9.642;2023-04-25T04:55:00;6.40;99.90
11087;DHT22;5597;47.588;9.642;2023-04-25T04:57:25;6.40;99.90
11087;DHT22;5597;47.588;9.642;2023-04-25T04:59:51;6.40;99.90
11087;DHT22;5597;47.588;9.642;2023-04-25T05:02:17;6.30;99.90
11087;DHT22;5597;47.588;9.642;2023-04-25T05:04:43;6.30;99.90
11087;DHT22;5597;47.588;9.642;2023-04-25T05:07:08;6.30;99.90
11087;DHT22;5597;47.588;9.642;2023-04-25T05:09:34;6.30;99.90
11087;DHT22;5597;47.588;9.642;2023-04-25T05:12:00;6.30;99.90
11087;DHT22;5597;47.588;9.642;2023-04-25T05:14:26;6.30;99.90
11087;DHT22;5597;47.588;9.642;2023-04-25T05:16:51;6.30;99.90
11087;DHT22;5597;47.588;9.642;2023-04-25T05:19:17;6.30;99.90
11087;DHT22;5597;47.588;9.642;2023-04-25T05:21:43;6.40;99.90
11087;DHT22;5597;47.588;9.642;2023-04-25T05:24:08;6.40;99.90
11087;DHT22;5597;47.588;9.642;2023-04-25T05:26:34;6.50;99.90
11087;DHT22;5597;47.588;9.642;2023-04-25T05:29:00;6.70;99.90
11087;DHT22;5597;47.588;9.642;2023-04-25T05:31:26;6.80;99.90
11087;DHT22;5597;47.588;9.642;2023-04-25T05:33:51;6.90;99.90
11087;DHT22;5597;47.588;9.642;2023-04-25T05:36:18;7.00;99.90
11087;DHT22;5597;47.588;9.642;2023-04-25T05:38:45;7.10;99.90
11087;DHT22;5597;47.588;9.642;2023-04-25T05:41:10;7.20;99.90
11087;DHT22;5597;47.588;9.642;2023-04-25T05:43:36;7.30;99.90
11087;DHT22;5597;47.588;9.642;2023-04-25T05:46:01;7.40;99.90
11087;DHT22;5597;47.588;9.642;2023-04-25T05:48:27;7.50;99.90
11087;DHT22;5597;47.588;9.642;2023-04-25T05:50:52;7.60;99.90
11087;DHT22;5597;47.588;9.642;2023-04-25T05:53:19;7.70;99.90
11087;DHT22;5597;47.588;9.642;2023-04-25T05:55:46;7.80;99.90
11087;DHT22;5597;47.588;9.642;2023-04-25T05:58:12;7.90;99.90
11087;DHT22;5597;47.588;9.642;2023-04-25T06:00:37;8.00;99.90
11087;DHT22;5597;47.588;9.642;2023-04-25T06:03:03;8.20;99.90
11087;DHT22;5597;47.588;9.642;2023-04-25T06:05:29;8.40;99.90
11087;DHT22;5597;47.588;9.642;2023-04-25T06:07:55;8.60;99.90
11087;DHT22;5597;47.588;9.642;2023-04-25T06:10:20;8.80;99.90
11087;DHT22;5597;47.588;9.642;2023-04-25T06:12:46;8.90;99.90
11087;DHT22;5597;47.588;9.642;2023-04-25T06:15:12;9.00;99.90
11087;DHT22;5597;47.588;9.642;2023-04-25T06:17:37;9.10;99.90
11087;DHT22;5597;47.588;9.642;2023-04-25T06:20:03;9.20;99.90
11087;DHT22;5597;47.588;9.642;2023-04-25T06:22:29;9.40;99.90
11087;DHT22;5597;47.588;9.642;2023-04-25T06:24:54;9.50;99.90
11087;DHT22;5597;47.588;9.642;2023-04-25T06:27:22;9.60;99.90
11087;DHT22;5597;47.588;9.642;2023-04-25T06:29:48;9.80;99.90
11087;DHT22;5597;47.588;9.642;2023-04-25T06:32:13;10.00;99.90
11087;DHT22;5597;47.588;9.642;2023-04-25T06:34:39;10.10;99.90
11087;DHT22;5597;47.588;9.642;2023-04-25T06:37:05;10.20;99.90
11087;DHT22;5597;47.588;9.642;2023-04-25T06:39:30;10.30;99.90
11087;DHT22;5597;47.588;9.642;2023-04-25T06:41:56;10.40;99.90
11087;DHT22;5597;47.588;9.642;2023-04-25T06:44:21;10.50;99.90
11087;DHT22;5597;47.588;9.642;2023-04-25T06:46:49;10.60;99.90
11087;DHT22;5597;47.588;9.642;2023-04-25T06:49:15;10.70;99.90
11087;DHT22;5597;47.588;9.642;2023-04-25T06:51:41;10.90;99.90
11087;DHT22;5597;47.588;9.642;2023-04-25T06:54:06;11.20;99.90
11087;DHT22;5597;47.588;9.642;2023-04-25T06:56:32;11.40;99.90
11087;DHT22;5597;47.588;9.642;2023-04-25T06:58:57;11.60;99.90
11087;DHT22;5597;47.588;9.642;2023-04-25T07:01:23;11.80;99.90
11087;DHT22;5597;47.588;9.642;2023-04-25T07:03:49;12.00;99.90
11087;DHT22;5597;47.588;9.642;2023-04-25T07:06:14;12.20;99.90
11087;DHT22;5597;47.588;9.642;2023-04-25T07:08:40;12.20;99.90
11087;DHT22;5597;47.588;9.642;2023-04-25T07:11:05;12.20;99.90
11087;DHT22;5597;47.588;9.642;2023-04-25T07:13:31;12.10;99.90
11087;DHT22;5597;47.588;9.642;2023-04-25T07:15:57;12.10;99.90
11087;DHT22;5597;47.588;9.642;2023-04-25T07:18:22;12.20;99.90
11087;DHT22;5597;47.588;9.642;2023-04-25T07:20:48;12.20;99.90
11087;DHT22;5597;47.588;9.642;2023-04-25T07:23:13;12.10;99.90
11087;DHT22;5597;47.588;9.642;2023-04-25T07:25:39;12.00;99.90
11087;DHT22;5597;47.588;9.642;2023-04-25T07:28:05;12.00;99.90
11087;DHT22;5597;47.588;9.642;2023-04-25T07:30:31;12.10;99.90
11087;DHT22;5597;47.588;9.642;2023-04-25T07:32:56;12.10;99.90
11087;DHT22;5597;47.588;9.642;2023-04-25T07:35:22;12.20;99.90
11087;DHT22;5597;47.588;9.642;2023-04-25T07:37:47;12.30;99.90
11087;DHT22;5597;47.588;9.642;2023-04-25T07:40:13;12.20;99.90
11087;DHT22;5597;47.588;9.642;2023-04-25T07:42:41;12.20;99.90
11087;DHT22;5597;47.588;9.642;2023-04-25T07:45:07;12.20;99.90
11087;DHT22;5597;47.588;9.642;2023-04-25T07:47:34;12.30;99.90
11087;DHT22;5597;47.588;9.642;2023-04-25T07:50:00;12.40;99.90
11087;DHT22;5597;47.588;9.642;2023-04-25T07:52:25;12.40;99.90
11087;DHT22;5597;47.588;9.642;2023-04-25T07:54:51;12.30;99.90
11087;DHT22;5597;47.588;9.642;2023-04-25T07:57:17;12.30;99.90
11087;DHT22;5597;47.588;9.642;2023-04-25T07:59:43;12.20;99.90
11087;DHT22;5597;47.588;9.642;2023-04-25T08:02:09;12.10;99.90
11087;DHT22;5597;47.588;9.642;2023-04-25T08:04:35;12.00;99.90
11087;DHT22;5597;47.588;9.642;2023-04-25T08:07:00;11.80;99.90
11087;DHT22;5597;47.588;9.642;2023-04-25T08:09:26;11.60;99.90
11087;DHT22;5597;47.588;9.642;2023-04-25T08:11:52;11.30;99.90
11087;DHT22;5597;47.588;9.642;2023-04-25T08:14:17;11.00;99.90
11087;DHT22;5597;47.588;9.642;2023-04-25T08:16:43;10.70;99.90
11087;DHT22;5597;47.588;9.642;2023-04-25T08:19:09;10.40;99.90
11087;DHT22;5597;47.588;9.642;2023-04-25T08:21:35;10.20;99.90
11087;DHT22;5597;47.588;9.642;2023-04-25T08:24:01;9.90;99.90
11087;DHT22;5597;47.588;9.642;2023-04-25T08:26:26;9.70;99.90
11087;DHT22;5597;47.588;9.642;2023-04-25T08:28:52;9.60;99.90
11087;DHT22;5597;47.588;9.642;2023-04-25T08:31:17;9.50;99.90
11087;DHT22;5597;47.588;9.642;2023-04-25T08:33:43;9.50;99.90
11087;DHT22;5597;47.588;9.642;2023-04-25T08:36:10;9.40;99.90
11087;DHT22;5597;47.588;9.642;2023-04-25T08:38:36;9.40;99.90
11087;DHT22;5597;47.588;9.642;2023-04-25T08:41:02;9.40;99.90
11087;DHT22;5597;47.588;9.642;2023-04-25T08:43:29;9.30;99.90
11087;DHT22;5597;47.588;9.642;2023-04-25T08:45:59;9.20;99.90
11087;DHT22;5597;47.588;9.642;2023-04-25T08:48:28;9.20;99.90
11087;DHT22;5597;47.588;9.642;2023-04-25T08:50:57;9.20;99.90
11087;DHT22;5597;47.588;9.642;2023-04-25T08:53:28;9.20;99.90
11087;DHT22;5597;47.588;9.642;2023-04-25T08:55:55;9.20;99.90
11087;DHT22;5597;47.588;9.642;2023-04-25T08:58:21;9.20;99.90
11087;DHT22;5597;47.588;9.642;2023-04-25T09:00:48;9.20;99.90
11087;DHT22;5597;47.588;9.642;2023-04-25T09:03:14;9.20;99.90
11087;DHT22;5597;47.588;9.642;2023-04-25T09:05:41;9.20;99.90
11087;DHT22;5597;47.588;9.642;2023-04-25T09:08:07;9.20;99.90
11087;DHT22;5597;47.588;9.642;2023-04-25T09:10:33;9.20;99.90
11087;DHT22;5597;47.588;9.642;2023-04-25T09:13:10;9.20;99.90
11087;DHT22;5597;47.588;9.642;2023-04-25T09:15:53;9.20;99.90
11087;DHT22;5597;47.588;9.642;2023-04-25T09:18:27;9.20;99.90
11087;DHT22;5597;47.588;9.642;2023-04-25T09:20:54;9.20;99.90
11087;DHT22;5597;47.588;9.642;2023-04-25T09:23:21;9.20;99.90
11087;DHT22;5597;47.588;9.642;2023-04-25T09:25:51;9.20;99.90
11087;DHT22;5597;47.588;9.642;2023-04-25T09:28:23;9.30;99.90
11087;DHT22;5597;47.588;9.642;2023-04-25T09:30:52;9.30;99.90
11087;DHT22;5597;47.588;9.642;2023-04-25T09:33:19;9.40;99.90
11087;DHT22;5597;47.588;9.642;2023-04-25T09:35:47;9.50;99.90
11087;DHT22;5597;47.588;9.642;2023-04-25T09:38:18;9.60;99.90
11087;DHT22;5597;47.588;9.642;2023-04-25T09:40:45;9.70;99.90
11087;DHT22;5597;47.588;9.642;2023-04-25T09:43:22;9.70;99.90
11087;DHT22;5597;47.588;9.642;2023-04-25T09:45:48;9.70;99.90
11087;DHT22;5597;47.588;9.642;2023-04-25T09:48:21;9.70;99.90
11087;DHT22;5597;47.588;9.642;2023-04-25T09:53:36;9.50;99.90
11087;DHT22;5597;47.588;9.642;2023-04-25T09:56:04;9.50;99.90
11087;DHT22;5597;47.588;9.642;2023-04-25T09:58:34;9.40;99.90
11087;DHT22;5597;47.588;9.642;2023-04-25T10:01:05;9.40;99.90
11087;DHT22;5597;47.588;9.642;2023-04-25T10:03:32;9.40;99.90
11087;DHT22;5597;47.588;9.642;2023-04-25T10:06:11;9.30;99.90
11087;DHT22;5597;47.588;9.642;2023-04-25T10:08:38;9.30;99.90
11087;DHT22;5597;47.588;9.642;2023-04-25T10:11:08;9.30;99.90
11087;DHT22;5597;47.588;9.642;2023-04-25T10:13:34;9.30;99.90
11087;DHT22;5597;47.588;9.642;2023-04-25T10:16:04;9.40;99.90
11087;DHT22;5597;47.588;9.642;2023-04-25T10:18:31;9.40;99.90
11087;DHT22;5597;47.588;9.642;2023-04-25T10:20:59;9.40;99.90
11087;DHT22;5597;47.588;9.642;2023-04-25T10:23:24;9.40;99.90
11087;DHT22;5597;47.588;9.642;2023-04-25T10:25:52;9.50;99.90
11087;DHT22;5597;47.588;9.642;2023-04-25T10:28:18;9.50;99.90
11087;DHT22;5597;47.588;9.642;2023-04-25T10:31:04;9.70;99.90
11087;DHT22;5597;47.588;9.642;2023-04-25T10:33:40;9.90;99.90
11087;DHT22;5597;47.588;9.642;2023-04-25T10:36:12;10.20;99.90
11087;DHT22;5597;47.588;9.642;2023-04-25T10:38:38;10.50;99.90
11087;DHT22;5597;47.588;9.642;2023-04-25T10:41:08;10.70;99.90
11087;DHT22;5597;47.588;9.642;2023-04-25T10:43:42;10.90;99.90
11087;DHT22;5597;47.588;9.642;2023-04-25T10:46:28;10.90;99.90
11087;DHT22;5597;47.588;9.642;2023-04-25T10:48:58;11.10;99.90
11087;DHT22;5597;47.588;9.642;2023-04-25T10:51:25;11.20;99.90
11087;DHT22;5597;47.588;9.642;2023-04-25T10:56:22;11.50;99.90
11087;DHT22;5597;47.588;9.642;2023-04-25T10:58:49;11.50;99.90
11087;DHT22;5597;47.588;9.642;2023-04-25T11:01:15;11.60;99.90
11087;DHT22;5597;47.588;9.642;2023-04-25T11:03:45;11.80;99.90
11087;DHT22;5597;47.588;9.642;2023-04-25T11:06:37;11.90;99.90
11087;DHT22;5597;47.588;9.642;2023-04-25T11:09:11;12.00;99.90
11087;DHT22;5597;47.588;9.642;2023-04-25T11:11:40;12.10;99.90
11087;DHT22;5597;47.588;9.642;2023-04-25T11:14:06;12.10;99.90
11087;DHT22;5597;47.588;9.642;2023-04-25T11:16:31;12.00;99.90
11087;DHT22;5597;47.588;9.642;2023-04-25T11:18:57;12.00;99.90
11087;DHT22;5597;47.588;9.642;2023-04-25T11:21:24;12.00;99.90
11087;DHT22;5597;47.588;9.642;2023-04-25T11:23:51;12.20;99.90
11087;DHT22;5597;47.588;9.642;2023-04-25T11:26:19;12.60;99.90
11087;DHT22;5597;47.588;9.642;2023-04-25T11:28:45;13.20;99.90
11087;DHT22;5597;47.588;9.642;2023-04-25T11:31:11;13.50;99.90
11087;DHT22;5597;47.588;9.642;2023-04-25T11:33:36;13.90;99.90
11087;DHT22;5597;47.588;9.642;2023-04-25T11:36:02;14.20;99.90
11087;DHT22;5597;47.588;9.642;2023-04-25T11:38:28;14.40;99.90
11087;DHT22;5597;47.588;9.642;2023-04-25T11:40:53;14.40;99.90
11087;DHT22;5597;47.588;9.642;2023-04-25T11:43:22;14.30;99.90
11087;DHT22;5597;47.588;9.642;2023-04-25T11:45:51;14.30;99.90
11087;DHT22;5597;47.588;9.642;2023-04-25T11:48:18;14.20;99.90
11087;DHT22;5597;47.588;9.642;2023-04-25T11:50:44;14.20;99.90
11087;DHT22;5597;47.588;9.642;2023-04-25T11:53:10;14.10;99.90
11087;DHT22;5597;47.588;9.642;2023-04-25T11:55:36;13.90;99.90
11087;DHT22;5597;47.588;9.642;2023-04-25T11:58:03;13.80;99.90
11087;DHT22;5597;47.588;9.642;2023-04-25T12:00:29;13.40;99.90
11087;DHT22;5597;47.588;9.642;2023-04-25T12:02:56;13.10;99.90
11087;DHT22;5597;47.588;9.642;2023-04-25T12:05:30;12.50;99.90
11087;DHT22;5597;47.588;9.642;2023-04-25T12:08:08;12.00;99.90
11087;DHT22;5597;47.588;9.642;2023-04-25T12:10:37;11.70;99.90
11087;DHT22;5597;47.588;9.642;2023-04-25T12:13:23;11.40;99.90
11087;DHT22;5597;47.588;9.642;2023-04-25T12:15:50;11.20;99.90
11087;DHT22;5597;47.588;9.642;2023-04-25T12:18:20;11.10;99.90
11087;DHT22;5597;47.588;9.642;2023-04-25T12:20:46;11.20;99.90
11087;DHT22;5597;47.588;9.642;2023-04-25T12:23:12;11.30;99.90
11087;DHT22;5597;47.588;9.642;2023-04-25T12:28:22;12.00;99.90
11087;DHT22;5597;47.588;9.642;2023-04-25T12:31:06;12.20;99.90
11087;DHT22;5597;47.588;9.642;2023-04-25T12:33:34;12.30;99.90
11087;DHT22;5597;47.588;9.642;2023-04-25T12:36:00;12.30;99.90
11087;DHT22;5597;47.588;9.642;2023-04-25T12:38:30;12.30;99.90
11087;DHT22;5597;47.588;9.642;2023-04-25T12:40:57;12.20;99.90
11087;DHT22;5597;47.588;9.642;2023-04-25T12:43:23;12.10;99.90
11087;DHT22;5597;47.588;9.642;2023-04-25T12:45:54;11.80;99.90
11087;DHT22;5597;47.588;9.642;2023-04-25T12:48:20;11.60;99.90
11087;DHT22;5597;47.588;9.642;2023-04-25T12:50:47;11.40;99.90
11087;DHT22;5597;47.588;9.642;2023-04-25T12:53:22;11.10;99.90
11087;DHT22;5597;47.588;9.642;2023-04-25T12:55:49;11.10;99.90
11087;DHT22;5597;47.588;9.642;2023-04-25T12:58:17;11.00;99.90
11087;DHT22;5597;47.588;9.642;2023-04-25T13:00:44;10.90;99.90
11087;DHT22;5597;47.588;9.642;2023-04-25T13:03:10;10.80;99.90
11087;DHT22;5597;47.588;9.642;2023-04-25T13:05:36;10.80;99.90
11087;DHT22;5597;47.588;9.642;2023-04-25T13:08:02;10.80;99.90
11087;DHT22;5597;47.588;9.642;2023-04-25T13:10:28;10.70;99.90
11087;DHT22;5597;47.588;9.642;2023-04-25T13:12:53;10.50;99.90
11087;DHT22;5597;47.588;9.642;2023-04-25T13:15:19;10.30;99.90
11087;DHT22;5597;47.588;9.642;2023-04-25T13:17:45;10.10;99.90
11087;DHT22;5597;47.588;9.642;2023-04-25T13:20:11;9.90;99.90
11087;DHT22;5597;47.588;9.642;2023-04-25T13:22:38;9.90;99.90
11087;DHT22;5597;47.588;9.642;2023-04-25T13:25:05;9.80;99.90
11087;DHT22;5597;47.588;9.642;2023-04-25T13:27:31;9.90;99.90
11087;DHT22;5597;47.588;9.642;2023-04-25T13:29:59;9.90;99.90
11087;DHT22;5597;47.588;9.642;2023-04-25T13:32:25;10.10;99.90
11087;DHT22;5597;47.588;9.642;2023-04-25T13:34:51;10.60;99.90
11087;DHT22;5597;47.588;9.642;2023-04-25T13:37:18;11.10;99.90
11087;DHT22;5597;47.588;9.642;2023-04-25T13:39:44;11.60;99.90
11087;DHT22;5597;47.588;9.642;2023-04-25T13:42:09;12.00;99.90
11087;DHT22;5597;47.588;9.642;2023-04-25T13:44:36;12.30;99.90
11087;DHT22;5597;47.588;9.642;2023-04-25T13:47:02;12.80;99.90
11087;DHT22;5597;47.588;9.642;2023-04-25T13:49:27;13.30;99.90
11087;DHT22;5597;47.588;9.642;2023-04-25T13:51:53;13.80;99.90
11087;DHT22;5597;47.588;9.642;2023-04-25T13:54:18;14.30;99.90
11087;DHT22;5597;47.588;9.642;2023-04-25T13:56:44;14.70;99.90
11087;DHT22;5597;47.588;9.642;2023-04-25T13:59:10;15.00;99.90
11087;DHT22;5597;47.588;9.642;2023-04-25T14:01:36;15.20;99.90
11087;DHT22;5597;47.588;9.642;2023-04-25T14:04:02;15.20;99.90
11087;DHT22;5597;47.588;9.642;2023-04-25T14:06:31;15.10;99.90
11087;DHT22;5597;47.588;9.642;2023-04-25T14:08:57;14.90;99.90
11087;DHT22;5597;47.588;9.642;2023-04-25T14:11:23;14.80;99.90
11087;DHT22;5597;47.588;9.642;2023-04-25T14:13:48;14.60;99.90
11087;DHT22;5597;47.588;9.642;2023-04-25T14:16:15;14.60;99.90
11087;DHT22;5597;47.588;9.642;2023-04-25T15:00:20;11.50;99.90
11087;DHT22;5597;47.588;9.642;2023-04-25T15:02:48;11.40;99.90
11087;DHT22;5597;47.588;9.642;2023-04-25T15:05:13;11.30;99.90
11087;DHT22;5597;47.588;9.642;2023-04-25T15:07:40;11.20;99.90
11087;DHT22;5597;47.588;9.642;2023-04-25T15:10:07;11.10;99.90
11087;DHT22;5597;47.588;9.642;2023-04-25T15:12:39;11.00;99.90
11087;DHT22;5597;47.588;9.642;2023-04-25T15:15:05;10.90;99.90
11087;DHT22;5597;47.588;9.642;2023-04-25T15:17:31;10.80;99.90
11087;DHT22;5597;47.588;9.642;2023-04-25T15:19:57;10.70;99.90
11087;DHT22;5597;47.588;9.642;2023-04-25T15:22:22;10.60;99.90
11087;DHT22;5597;47.588;9.642;2023-04-25T15:24:48;10.50;99.90
11087;DHT22;5597;47.588;9.642;2023-04-25T15:27:14;10.40;99.90
11087;DHT22;5597;47.588;9.642;2023-04-25T15:29:39;10.30;99.90
11087;DHT22;5597;47.588;9.642;2023-04-25T15:32:05;10.30;99.90
11087;DHT22;5597;47.588;9.642;2023-04-25T15:34:31;10.20;99.90
11087;DHT22;5597;47.588;9.642;2023-04-25T15:36:57;10.00;99.90
11087;DHT22;5597;47.588;9.642;2023-04-25T15:39:23;9.80;99.90
11087;DHT22;5597;47.588;9.642;2023-04-25T15:41:48;9.70;99.90
11087;DHT22;5597;47.588;9.642;2023-04-25T15:44:14;9.60;99.90
11087;DHT22;5597;47.588;9.642;2023-04-25T15:46:40;9.50;99.90
11087;DHT22;5597;47.588;9.642;2023-04-25T15:49:05;9.40;99.90
11087;DHT22;5597;47.588;9.642;2023-04-25T15:51:31;9.30;99.90
11087;DHT22;5597;47.588;9.642;2023-04-25T15:53:57;9.20;99.90
11087;DHT22;5597;47.588;9.642;2023-04-25T15:56:23;9.20;99.90
11087;DHT22;5597;47.588;9.642;2023-04-25T15:58:49;9.20;99.90
11087;DHT22;5597;47.588;9.642;2023-04-25T16:01:15;9.10;99.90
11087;DHT22;5597;47.588;9.642;2023-04-25T16:03:41;9.00;99.90
11087;DHT22;5597;47.588;9.642;2023-04-25T16:06:07;9.00;99.90
11087;DHT22;5597;47.588;9.642;2023-04-25T16:08:32;9.00;99.90
11087;DHT22;5597;47.588;9.642;2023-04-25T16:11:01;9.00;99.90
11087;DHT22;5597;47.588;9.642;2023-04-25T16:13:27;9.00;99.90
11087;DHT22;5597;47.588;9.642;2023-04-25T16:15:54;8.80;99.90
11087;DHT22;5597;47.588;9.642;2023-04-25T16:18:20;8.70;99.90
11087;DHT22;5597;47.588;9.642;2023-04-25T16:20:45;8.60;99.90
11087;DHT22;5597;47.588;9.642;2023-04-25T16:23:11;8.40;99.90
11087;DHT22;5597;47.588;9.642;2023-04-25T16:25:36;8.40;99.90
11087;DHT22;5597;47.588;9.642;2023-04-25T16:28:02;8.30;99.90
11087;DHT22;5597;47.588;9.642;2023-04-25T16:30:27;8.30;99.90
11087;DHT22;5597;47.588;9.642;2023-04-25T16:32:53;8.30;99.90
11087;DHT22;5597;47.588;9.642;2023-04-25T16:35:21;8.30;99.90
11087;DHT22;5597;47.588;9.642;2023-04-25T16:37:47;8.30;99.90
11087;DHT22;5597;47.588;9.642;2023-04-25T16:40:13;8.30;99.90
11087;DHT22;5597;47.588;9.642;2023-04-25T16:42:38;8.40;99.90